LKTB/BRQ METAR and TAF weather

Enter ICAO airport designator
Station Type Date Time Source
LKTB METAR 2019/08/18 09:30 UTC NOAA

LKTB 180930Z 17005KT 120V210 CAVOK 24/17 Q1013 NOSIG


Station Type Date Time Source
LKTB Decoded METAR 2019/08/18 09:30 UTC NOAA

Station name not available
Aug 18, 2019 - 05:30 AM EDT / 2019.08.18 0930 UTC
Wind: from the S (170 degrees) at 6 MPH (5 KT) (direction variable):0
Visibility: greater than 7 mile(s):0
Temperature: 75 F (24 C)
Dew Point: 62 F (17 C)
Relative Humidity: 64%
Pressure (altimeter): 29.91 in. Hg (1013 hPa)
ob: LKTB 180930Z 17005KT 120V210 CAVOK 24/17 Q1013 NOSIG
cycle: 9

Station Type Date Time Source
LKTB TAF 2019/08/18 06:08 UTC NOAA

TAF LKTB 180500Z 1806/1912 09004KT CAVOK
BECMG 1806/1808 13008KT
TEMPO 1810/1817 17012G22KT PROB30
TEMPO 1908/1912 32014KT 8000 SHRA SCT045TCU

Example: see airport list